Lafayette, CO (80026)

6:31 AM MDT on May 22, 2015 (GMT -0600)
Old Town | | Change Station
CLOSE
Current Station
Personal Weather Station
Location: Lafayette, CO
Elevation: 5246 ft
Nearby Weather Stations

Elev 5246 ft 39.99 °N, 105.09 °W | Updated 2 seconds ago

Rain
Rain
46.9 °F
Feels Like 47 °F
N
0.0
Wind Variable Wind from SE
Gusts 0.0 mph

Today
High -- | Low -- °F
--% Chance of Precip.
Yesterday
High -- | Low -- °F
Precip. -- in
5:39 AM 8:15 PM
Waxing Crescent, 21% visible
Pressure 30.00 in
Visibility 7.0 miles
Clouds Overcast 1900 ft
Windchill 47 °F
Dew Point 47 °F
Humidity 99%
Rainfall 0.07 in
Snow Depth Not available.
UV 0.0 out of 12
Pollen 3.80 out of 12
Air Quality Not available.
Flu Activity Sporadic
METAR KEIK 221214Z AUTO 09004KT 7SM RA OVC019 09/08 A3000 RMK AO2 T00850078

More Conditions Fewer Conditions

Pressure 30.00 in
Visibility 7.0 miles
Clouds Overcast 1900 ft
Windchill 47 °F
Dew Point 47 °F
Humidity 99%
Rainfall 0.07 in
Snow Depth Not available.
UV 0.0 out of 12
Pollen 3.80 out of 12
Air Quality Not available.
Flu Activity Sporadic
METAR KEIK 221214Z AUTO 09004KT 7SM RA OVC019 09/08 A3000 RMK AO2 T00850078

More Conditions Fewer Conditions

Nowcast | as of 5:15 am MDT on May 22, 2015

Rain showers will become more widespread across the Front Range foothills and adjacent plains through the early morning hours. Rainfall rates will be around a tenth of an inch per hour.

×

10-Day Weather Forecast

Almanac

Astronomy

May. 22, 2015 Rise Set
Actual Time
Civil Twilight
Nautical Twilight
Astronomical Twilight
Moon
Length of Visible Light
Length of Day
Tomorrow will be .
, % of the Moon is Illuminated

Today's Extremes

State Highs State Lows

Community

WunderPhotos

Upload Photos

1,823,209 photos uploaded!

WunderBlogs® & News

Nearby

Air Quality

  Air Quality AQ Index Pollutant
Not available.

Snow Depth

Station Depth Elevation

Earthquake Activity

City Distance Mag. Time & Date
Minimum magnitude displayed is 2.5.

Coastal Water Temperatures

Place Temperature

Stations

Nearby Weather Stations

Station Location Temp. Windchill Dew Point Humidity Wind Precip. Elev Updated Type